Time;durP1;ratioP1;P1;durP2;ratioP2;P2;SDS_P1;SDS_P2;PMS_P1;PMS_P2;Temp;Humidity;BMP_temperature;BMP_pressure;BME280_temperature;BME280_humidity;BME280_pressure;Samples;Min_cycle;Max_cycle;Signal;HPM_P1;HPM_P2
2023/03/04 00:02:09;;;;;;;;;;;9.70;99.90;;;;;;5007836;28;19913;-66
2023/03/04 00:04:35;;;;;;;;;;;9.70;99.90;;;;;;5009517;28;19985;-64
2023/03/04 00:07:01;;;;;;;;;;;9.50;99.90;;;;;;5009213;28;20318;-66
2023/03/04 00:09:26;;;;;;;;;;;9.50;99.90;;;;;;5005921;28;19913;-67
2023/03/04 00:11:52;;;;;;;;;;;9.50;99.90;;;;;;5008071;28;20265;-64
2023/03/04 00:14:18;;;;;;;;;;;9.50;99.90;;;;;;5009233;28;20267;-64
2023/03/04 00:16:43;;;;;;;;;;;9.50;99.90;;;;;;5008684;28;19926;-64
2023/03/04 00:19:09;;;;;;;;;;;9.50;99.90;;;;;;5007702;28;20386;-68
2023/03/04 00:21:35;;;;;;;;;;;9.60;99.90;;;;;;5004359;28;19964;-66
2023/03/04 00:24:01;;;;;;;;;;;9.60;99.90;;;;;;5004237;28;20271;-65
2023/03/04 00:26:26;;;;;;;;;;;9.70;99.90;;;;;;5000466;28;19913;-66
2023/03/04 00:28:52;;;;;;;;;;;9.70;99.90;;;;;;5003195;28;19965;-66
2023/03/04 00:31:18;;;;;;;;;;;9.70;99.90;;;;;;5005926;28;20273;-64
2023/03/04 00:33:43;;;;;;;;;;;9.70;99.90;;;;;;5007589;28;19983;-65
2023/03/04 00:36:09;;;;;;;;;;;9.60;99.90;;;;;;5006869;28;20272;-62
2023/03/04 00:38:35;;;;;;;;;;;9.60;99.90;;;;;;5002985;28;19914;-64
2023/03/04 00:41:03;;;;;;;;;;;9.50;99.90;;;;;;5010833;28;19921;-67
2023/03/04 00:43:30;;;;;;;;;;;9.40;99.90;;;;;;5007042;28;19920;-65
2023/03/04 00:45:56;;;;;;;;;;;9.40;99.90;;;;;;5008577;28;20013;-64
2023/03/04 00:48:25;;;;;;;;;;;9.40;99.90;;;;;;5009051;28;19920;-65
2023/03/04 00:50:52;;;;;;;;;;;9.30;99.90;;;;;;5012256;28;19920;-66
2023/03/04 00:53:19;;;;;;;;;;;9.30;99.90;;;;;;5010132;28;19913;-64
2023/03/04 00:55:44;;;;;;;;;;;9.20;99.90;;;;;;5012159;28;20375;-65
2023/03/04 00:58:10;;;;;;;;;;;9.30;99.90;;;;;;5008685;28;20049;-66
2023/03/04 01:00:35;;;;;;;;;;;9.30;99.90;;;;;;5012165;28;19918;-67
2023/03/04 01:03:01;;;;;;;;;;;9.30;99.90;;;;;;5010855;28;20342;-63
2023/03/04 01:05:27;;;;;;;;;;;9.40;99.90;;;;;;5011290;28;19962;-64
2023/03/04 01:07:53;;;;;;;;;;;9.40;99.90;;;;;;5007598;28;19913;-64
2023/03/04 01:10:18;;;;;;;;;;;9.50;99.90;;;;;;5008911;28;20000;-63
2023/03/04 01:12:44;;;;;;;;;;;9.50;99.90;;;;;;5010125;28;20051;-67
2023/03/04 01:15:11;;;;;;;;;;;9.60;99.90;;;;;;5010783;28;19932;-67
2023/03/04 01:17:37;;;;;;;;;;;9.60;99.90;;;;;;5007414;28;20313;-66
2023/03/04 01:20:06;;;;;;;;;;;9.60;99.90;;;;;;5005060;28;19920;-66
2023/03/04 01:22:32;;;;;;;;;;;9.60;99.90;;;;;;5010201;28;19996;-65
2023/03/04 01:24:58;;;;;;;;;;;9.60;99.90;;;;;;5009777;28;19967;-65
2023/03/04 01:27:24;;;;;;;;;;;9.60;99.90;;;;;;5004743;28;19968;-64
2023/03/04 01:29:49;;;;;;;;;;;9.50;99.90;;;;;;4995171;28;20352;-65
2023/03/04 01:32:15;;;;;;;;;;;9.50;99.90;;;;;;5009313;28;19956;-65
2023/03/04 01:34:41;;;;;;;;;;;9.50;99.90;;;;;;5007769;28;19913;-62
2023/03/04 01:37:07;;;;;;;;;;;9.50;99.90;;;;;;5011130;28;19960;-67
2023/03/04 01:39:35;;;;;;;;;;;9.40;99.90;;;;;;5007287;28;20335;-69
2023/03/04 01:42:01;;;;;;;;;;;9.30;99.90;;;;;;5010163;28;20017;-69
2023/03/04 01:44:27;;;;;;;;;;;9.30;99.90;;;;;;5011846;28;20019;-69
2023/03/04 01:46:57;;;;;;;;;;;9.30;99.90;;;;;;5013877;28;20342;-70
2023/03/04 01:49:23;;;;;;;;;;;9.40;99.90;;;;;;5012811;28;19920;-68
2023/03/04 01:51:51;;;;;;;;;;;9.40;99.90;;;;;;5011539;28;19967;-68
2023/03/04 01:54:23;;;;;;;;;;;9.50;99.90;;;;;;5014156;28;19913;-68
2023/03/04 01:56:50;;;;;;;;;;;9.50;99.90;;;;;;5011673;28;19961;-69
2023/03/04 01:59:18;;;;;;;;;;;9.60;99.90;;;;;;5011162;28;20375;-69
2023/03/04 02:01:50;;;;;;;;;;;9.60;99.90;;;;;;5014508;28;20297;-73
2023/03/04 02:04:16;;;;;;;;;;;9.60;99.90;;;;;;5012773;28;19917;-68
2023/03/04 02:06:43;;;;;;;;;;;9.60;99.90;;;;;;5004099;28;19922;-69
2023/03/04 02:09:11;;;;;;;;;;;9.60;99.90;;;;;;5008782;28;19928;-68
2023/03/04 02:11:41;;;;;;;;;;;9.60;99.90;;;;;;5013904;28;19914;-68
2023/03/04 02:14:10;;;;;;;;;;;9.60;99.90;;;;;;5011977;28;20264;-69
2023/03/04 02:16:36;;;;;;;;;;;9.60;99.90;;;;;;5012934;28;19913;-67
2023/03/04 02:19:04;;;;;;;;;;;9.70;99.90;;;;;;5013719;28;19920;-68
2023/03/04 02:21:33;;;;;;;;;;;9.70;99.90;;;;;;5013902;28;19924;-69
2023/03/04 02:24:03;;;;;;;;;;;9.80;99.90;;;;;;5013312;28;19979;-69
2023/03/04 02:26:29;;;;;;;;;;;9.80;99.90;;;;;;5010421;28;19913;-71
2023/03/04 02:28:56;;;;;;;;;;;9.80;99.90;;;;;;5011200;28;20283;-71
2023/03/04 02:31:24;;;;;;;;;;;9.80;99.90;;;;;;5007638;28;20352;-66
2023/03/04 02:33:50;;;;;;;;;;;9.80;99.90;;;;;;5000284;28;19914;-68
2023/03/04 02:36:16;;;;;;;;;;;9.70;99.90;;;;;;5013115;28;19914;-67
2023/03/04 02:38:42;;;;;;;;;;;9.70;99.90;;;;;;5005808;28;20009;-67
2023/03/04 02:41:11;;;;;;;;;;;9.80;99.90;;;;;;5013020;28;19960;-69
2023/03/04 02:43:46;;;;;;;;;;;9.80;99.90;;;;;;5009210;28;20376;-69
2023/03/04 02:46:12;;;;;;;;;;;9.80;99.90;;;;;;5012202;28;19967;-74
2023/03/04 02:48:38;;;;;;;;;;;9.80;99.90;;;;;;5012502;28;19920;-69
2023/03/04 02:51:04;;;;;;;;;;;9.90;99.90;;;;;;5011860;28;20012;-68
2023/03/04 02:53:29;;;;;;;;;;;9.80;99.90;;;;;;5014290;28;19922;-69
2023/03/04 02:55:55;;;;;;;;;;;9.80;99.90;;;;;;5012366;28;19955;-68
2023/03/04 02:58:21;;;;;;;;;;;9.80;99.90;;;;;;5010716;28;20007;-67
2023/03/04 03:00:47;;;;;;;;;;;9.80;99.90;;;;;;5008678;28;19918;-69
2023/03/04 03:03:12;;;;;;;;;;;9.80;99.90;;;;;;5011395;28;19925;-73
2023/03/04 03:05:38;;;;;;;;;;;9.80;99.90;;;;;;5010216;28;19918;-69
2023/03/04 03:08:04;;;;;;;;;;;9.70;99.90;;;;;;5011174;28;19920;-69
2023/03/04 03:10:30;;;;;;;;;;;9.70;99.90;;;;;;5011911;28;19921;-69
2023/03/04 03:12:55;;;;;;;;;;;9.70;99.90;;;;;;5012454;28;20543;-70
2023/03/04 03:15:21;;;;;;;;;;;9.80;99.90;;;;;;5012143;28;19917;-68
2023/03/04 03:17:47;;;;;;;;;;;9.80;99.90;;;;;;5008699;28;19922;-69
2023/03/04 03:20:16;;;;;;;;;;;9.80;99.90;;;;;;5010014;28;19914;-69
2023/03/04 03:22:42;;;;;;;;;;;9.70;99.90;;;;;;5007241;28;19960;-66
2023/03/04 03:25:08;;;;;;;;;;;9.80;99.90;;;;;;5013286;28;20259;-67
2023/03/04 03:27:34;;;;;;;;;;;9.80;99.90;;;;;;5003645;28;19913;-68
2023/03/04 03:30:06;;;;;;;;;;;9.80;99.90;;;;;;5010796;28;20402;-68
2023/03/04 03:32:34;;;;;;;;;;;9.80;99.90;;;;;;5010043;28;20184;-69
2023/03/04 03:35:00;;;;;;;;;;;9.80;99.90;;;;;;5004884;28;20667;-67
2023/03/04 03:37:26;;;;;;;;;;;9.70;99.90;;;;;;5005063;28;19914;-69
2023/03/04 03:39:51;;;;;;;;;;;9.80;99.90;;;;;;5004442;28;19987;-67
2023/03/04 03:42:17;;;;;;;;;;;9.80;99.90;;;;;;5012982;28;19917;-74
2023/03/04 03:44:46;;;;;;;;;;;9.80;99.90;;;;;;5011959;28;19918;-68
2023/03/04 03:47:12;;;;;;;;;;;9.80;99.90;;;;;;5007281;28;19920;-69
2023/03/04 03:49:50;;;;;;;;;;;9.80;99.90;;;;;;5009025;28;19914;-69
2023/03/04 03:52:15;;;;;;;;;;;9.70;99.90;;;;;;5011002;28;19961;-69
2023/03/04 03:54:48;;;;;;;;;;;9.70;99.90;;;;;;5000502;28;19920;-67
2023/03/04 03:57:13;;;;;;;;;;;9.60;99.90;;;;;;5007834;28;19913;-68
2023/03/04 03:59:39;;;;;;;;;;;9.60;99.90;;;;;;5010198;28;19989;-68
2023/03/04 04:02:05;;;;;;;;;;;9.60;99.90;;;;;;5008587;28;20375;-65
2023/03/04 04:04:31;;;;;;;;;;;9.50;99.90;;;;;;5009913;28;20000;-66
2023/03/04 04:07:05;;;;;;;;;;;9.50;99.90;;;;;;5012830;28;19914;-68
2023/03/04 04:09:31;;;;;;;;;;;9.40;99.90;;;;;;5009158;28;19914;-65
2023/03/04 04:11:57;;;;;;;;;;;9.30;99.90;;;;;;5009790;28;19934;-69
2023/03/04 04:14:23;;;;;;;;;;;9.20;99.90;;;;;;5012388;28;20004;-72
2023/03/04 04:16:48;;;;;;;;;;;9.30;99.90;;;;;;5011642;28;19921;-69
2023/03/04 04:19:18;;;;;;;;;;;9.30;99.90;;;;;;5011726;28;20003;-68
2023/03/04 04:21:45;;;;;;;;;;;9.20;99.90;;;;;;5006074;28;20317;-68
2023/03/04 04:24:10;;;;;;;;;;;9.10;99.90;;;;;;5007371;28;20024;-68
2023/03/04 04:26:42;;;;;;;;;;;9.10;99.90;;;;;;5009487;28;20384;-68
2023/03/04 04:29:09;;;;;;;;;;;9.10;99.90;;;;;;5004105;28;19920;-69
2023/03/04 04:31:34;;;;;;;;;;;9.10;99.90;;;;;;5013494;28;20426;-68
2023/03/04 04:34:00;;;;;;;;;;;9.00;99.90;;;;;;5011267;28;19914;-68
2023/03/04 04:36:26;;;;;;;;;;;8.90;99.90;;;;;;5010464;28;19914;-67
2023/03/04 04:38:52;;;;;;;;;;;9.00;99.90;;;;;;5000977;28;19913;-71
2023/03/04 04:41:20;;;;;;;;;;;9.00;99.90;;;;;;5008277;28;19917;-68
2023/03/04 04:43:45;;;;;;;;;;;9.00;99.90;;;;;;5004469;28;20284;-68
2023/03/04 04:46:11;;;;;;;;;;;9.10;99.90;;;;;;5009617;28;19924;-68
2023/03/04 04:48:37;;;;;;;;;;;9.00;99.90;;;;;;5006197;28;19913;-68
2023/03/04 04:51:03;;;;;;;;;;;9.00;99.90;;;;;;5011079;28;19914;-68
2023/03/04 04:53:29;;;;;;;;;;;9.10;99.90;;;;;;5007982;28;19913;-67
2023/03/04 04:55:54;;;;;;;;;;;9.10;99.90;;;;;;5009614;28;19917;-66
2023/03/04 04:58:20;;;;;;;;;;;9.10;99.90;;;;;;5006360;28;19914;-69
2023/03/04 05:00:46;;;;;;;;;;;9.10;99.90;;;;;;5010604;28;19913;-68
2023/03/04 05:03:12;;;;;;;;;;;9.00;99.90;;;;;;5007875;28;19913;-66
2023/03/04 05:05:37;;;;;;;;;;;9.10;99.90;;;;;;5006684;28;19965;-67
2023/03/04 05:08:03;;;;;;;;;;;9.20;99.90;;;;;;5005026;28;19914;-68
2023/03/04 05:10:29;;;;;;;;;;;9.10;99.90;;;;;;5008698;28;19920;-68
2023/03/04 05:12:55;;;;;;;;;;;9.20;99.90;;;;;;5009846;28;20004;-67
2023/03/04 05:15:20;;;;;;;;;;;9.10;99.90;;;;;;5010219;28;19914;-69
2023/03/04 05:17:46;;;;;;;;;;;9.20;99.90;;;;;;5008252;28;19917;-68
2023/03/04 05:20:14;;;;;;;;;;;9.20;99.90;;;;;;5011656;28;19913;-68
2023/03/04 05:22:40;;;;;;;;;;;9.20;99.90;;;;;;5014259;28;19913;-69
2023/03/04 05:25:06;;;;;;;;;;;9.10;99.90;;;;;;5007499;28;19917;-69
2023/03/04 05:27:32;;;;;;;;;;;9.00;99.90;;;;;;5013670;28;19952;-69
2023/03/04 05:30:00;;;;;;;;;;;9.00;99.90;;;;;;5009242;28;19913;-67
2023/03/04 05:32:26;;;;;;;;;;;9.00;99.90;;;;;;5015089;28;19980;-69
2023/03/04 05:34:52;;;;;;;;;;;8.90;99.90;;;;;;5012845;28;19967;-69
2023/03/04 05:37:17;;;;;;;;;;;8.90;99.90;;;;;;5013616;28;19918;-67
2023/03/04 05:39:43;;;;;;;;;;;8.90;99.90;;;;;;5013299;28;20367;-68
2023/03/04 05:42:09;;;;;;;;;;;8.90;99.90;;;;;;5014449;28;20386;-69
2023/03/04 05:44:34;;;;;;;;;;;8.90;99.90;;;;;;5015453;28;19952;-68
2023/03/04 05:47:00;;;;;;;;;;;8.90;99.90;;;;;;5013082;28;19914;-69
2023/03/04 05:49:26;;;;;;;;;;;8.90;99.90;;;;;;5030118;28;20004;-67
2023/03/04 05:51:52;;;;;;;;;;;8.90;99.90;;;;;;5015472;28;19936;-68
2023/03/04 05:54:20;;;;;;;;;;;9.00;99.90;;;;;;5011900;28;19914;-66
2023/03/04 05:56:46;;;;;;;;;;;8.90;99.90;;;;;;5009600;28;20398;-67
2023/03/04 05:59:12;;;;;;;;;;;8.90;99.90;;;;;;5012778;28;19976;-68
2023/03/04 06:01:37;;;;;;;;;;;9.00;99.90;;;;;;5009516;28;19924;-71
2023/03/04 06:04:03;;;;;;;;;;;9.10;99.90;;;;;;5013857;28;20390;-69
2023/03/04 06:06:29;;;;;;;;;;;9.10;99.90;;;;;;5013130;28;19960;-68
2023/03/04 06:08:55;;;;;;;;;;;9.20;99.90;;;;;;5011825;28;19918;-65
2023/03/04 06:11:20;;;;;;;;;;;9.20;99.90;;;;;;5014266;28;19936;-69
2023/03/04 06:13:46;;;;;;;;;;;9.20;99.90;;;;;;5009046;28;19918;-69
2023/03/04 06:16:12;;;;;;;;;;;9.20;99.90;;;;;;5013405;28;20013;-69
2023/03/04 06:18:38;;;;;;;;;;;9.20;99.90;;;;;;5011082;28;20287;-68
2023/03/04 06:21:03;;;;;;;;;;;9.20;99.90;;;;;;5008212;28;20279;-67
2023/03/04 06:23:29;;;;;;;;;;;9.10;99.90;;;;;;5009429;28;20068;-68
2023/03/04 06:25:57;;;;;;;;;;;9.20;99.90;;;;;;5012691;28;20331;-67
2023/03/04 06:28:23;;;;;;;;;;;9.10;99.90;;;;;;5009772;28;19919;-69
2023/03/04 06:30:52;;;;;;;;;;;9.10;99.90;;;;;;5003965;28;19956;-69
2023/03/04 06:33:21;;;;;;;;;;;9.10;99.90;;;;;;5010941;28;19957;-67
2023/03/04 06:35:47;;;;;;;;;;;9.20;99.90;;;;;;5007940;28;20329;-69
2023/03/04 06:38:13;;;;;;;;;;;9.20;99.90;;;;;;5011479;28;20012;-68
2023/03/04 06:40:38;;;;;;;;;;;9.20;99.90;;;;;;5006786;28;19983;-68
2023/03/04 06:43:04;;;;;;;;;;;9.30;99.90;;;;;;5010604;28;19913;-68
2023/03/04 06:45:30;;;;;;;;;;;9.30;99.90;;;;;;5014018;28;20363;-68
2023/03/04 06:47:55;;;;;;;;;;;9.40;99.90;;;;;;5013697;28;20387;-68
2023/03/04 06:50:21;;;;;;;;;;;9.40;99.90;;;;;;5013557;28;19917;-69
2023/03/04 06:52:48;;;;;;;;;;;9.30;99.90;;;;;;5013409;28;20007;-68
2023/03/04 06:55:13;;;;;;;;;;;9.40;99.90;;;;;;5011936;28;19914;-69
2023/03/04 06:57:39;;;;;;;;;;;9.40;99.90;;;;;;5007217;28;20084;-69
2023/03/04 07:00:05;;;;;;;;;;;9.50;99.90;;;;;;5014273;28;19914;-67
2023/03/04 07:02:31;;;;;;;;;;;9.50;99.90;;;;;;5009332;28;19913;-69
2023/03/04 07:04:57;;;;;;;;;;;9.40;99.90;;;;;;5007789;28;19985;-69
2023/03/04 07:07:24;;;;;;;;;;;9.40;99.90;;;;;;5009270;28;19913;-68
2023/03/04 07:09:50;;;;;;;;;;;9.40;99.90;;;;;;5012486;28;19914;-66
2023/03/04 07:12:16;;;;;;;;;;;9.40;99.90;;;;;;5009536;28;19969;-68
2023/03/04 07:14:42;;;;;;;;;;;9.40;99.90;;;;;;5010362;28;19913;-69
2023/03/04 07:17:07;;;;;;;;;;;9.50;99.90;;;;;;5008731;28;19967;-69
2023/03/04 07:19:33;;;;;;;;;;;9.50;99.90;;;;;;5008496;28;19921;-68
2023/03/04 07:22:06;;;;;;;;;;;9.50;99.90;;;;;;5013034;28;19952;-67
2023/03/04 07:24:32;;;;;;;;;;;9.60;99.90;;;;;;5011598;28;19917;-69
2023/03/04 07:26:57;;;;;;;;;;;9.70;99.90;;;;;;5016061;28;20308;-69
2023/03/04 07:29:23;;;;;;;;;;;9.70;99.90;;;;;;5011957;28;19922;-68
2023/03/04 07:31:49;;;;;;;;;;;9.80;99.90;;;;;;5013904;28;19921;-68
2023/03/04 07:34:15;;;;;;;;;;;9.90;99.90;;;;;;5005854;28;19917;-67
2023/03/04 07:36:40;;;;;;;;;;;9.90;99.90;;;;;;5007724;28;19914;-69
2023/03/04 07:39:06;;;;;;;;;;;9.90;99.90;;;;;;5007604;28;19914;-69
2023/03/04 07:41:35;;;;;;;;;;;9.90;99.90;;;;;;5002026;28;19921;-67
2023/03/04 07:44:01;;;;;;;;;;;10.00;99.90;;;;;;5005240;28;19944;-69
2023/03/04 07:46:29;;;;;;;;;;;10.00;99.90;;;;;;5008998;28;20370;-69
2023/03/04 07:48:55;;;;;;;;;;;10.10;99.90;;;;;;5007827;28;20024;-69
2023/03/04 07:51:22;;;;;;;;;;;10.20;99.90;;;;;;5007768;28;19913;-66
2023/03/04 07:53:49;;;;;;;;;;;10.30;99.90;;;;;;5009257;28;19959;-67
2023/03/04 07:56:16;;;;;;;;;;;10.30;99.90;;;;;;5005427;28;19918;-69
2023/03/04 07:58:42;;;;;;;;;;;10.40;99.90;;;;;;5013869;28;19999;-67
2023/03/04 08:01:18;;;;;;;;;;;10.50;99.90;;;;;;5016284;28;19913;-68
2023/03/04 08:03:44;;;;;;;;;;;10.60;99.90;;;;;;5016469;28;20526;-68
2023/03/04 08:06:11;;;;;;;;;;;10.70;99.90;;;;;;5012903;28;19909;-65
2023/03/04 08:08:37;;;;;;;;;;;10.90;99.90;;;;;;5010157;28;19914;-68
2023/03/04 08:11:11;;;;;;;;;;;11.00;99.90;;;;;;5015147;28;20338;-68
2023/03/04 08:13:36;;;;;;;;;;;11.10;99.90;;;;;;5014804;28;19941;-67
2023/03/04 08:16:03;;;;;;;;;;;11.30;99.90;;;;;;5013832;28;20395;-69
2023/03/04 08:18:31;;;;;;;;;;;11.50;99.90;;;;;;5013357;28;19914;-68
2023/03/04 08:20:56;;;;;;;;;;;11.50;99.90;;;;;;5015221;28;19920;-68
2023/03/04 08:23:23;;;;;;;;;;;11.60;99.90;;;;;;5007086;28;19909;-69
2023/03/04 08:25:48;;;;;;;;;;;11.70;99.90;;;;;;5008754;28;19925;-67
2023/03/04 08:28:14;;;;;;;;;;;11.70;99.90;;;;;;5014719;28;19913;-69
2023/03/04 08:30:41;;;;;;;;;;;11.80;99.90;;;;;;5011250;28;19913;-69
2023/03/04 08:33:07;;;;;;;;;;;11.80;99.90;;;;;;5012179;28;19909;-68
2023/03/04 08:35:34;;;;;;;;;;;11.90;99.90;;;;;;5009255;28;19921;-72
2023/03/04 08:38:03;;;;;;;;;;;12.00;99.90;;;;;;5007327;28;19910;-66
2023/03/04 08:40:31;;;;;;;;;;;12.00;99.90;;;;;;5009703;28;19960;-69
2023/03/04 08:42:57;;;;;;;;;;;12.00;99.90;;;;;;5011870;28;19914;-69
2023/03/04 08:45:23;;;;;;;;;;;12.00;99.90;;;;;;5009111;28;19917;-68
2023/03/04 08:47:50;;;;;;;;;;;12.00;99.90;;;;;;5009265;28;20406;-68
2023/03/04 08:50:16;;;;;;;;;;;12.10;99.90;;;;;;5010285;28;19925;-68
2023/03/04 08:52:42;;;;;;;;;;;12.10;99.90;;;;;;5013695;28;19914;-69
2023/03/04 08:55:07;;;;;;;;;;;12.10;99.90;;;;;;5012692;28;20307;-72
2023/03/04 08:57:33;;;;;;;;;;;12.20;99.90;;;;;;5008328;28;20005;-69
2023/03/04 08:59:59;;;;;;;;;;;12.20;99.90;;;;;;5019895;28;19917;-69
2023/03/04 09:02:25;;;;;;;;;;;12.20;99.90;;;;;;5012678;28;19972;-67
2023/03/04 09:04:50;;;;;;;;;;;12.20;99.90;;;;;;5027339;28;19971;-72
2023/03/04 09:07:16;;;;;;;;;;;12.30;99.90;;;;;;5010044;28;19914;-69
2023/03/04 09:09:41;;;;;;;;;;;12.30;99.90;;;;;;5018608;28;19956;-68
2023/03/04 09:12:07;;;;;;;;;;;12.30;99.90;;;;;;5012168;28;19921;-68
2023/03/04 09:14:34;;;;;;;;;;;12.30;99.90;;;;;;5010809;28;19960;-69
2023/03/04 09:17:00;;;;;;;;;;;12.40;99.90;;;;;;5013476;28;19920;-68
2023/03/04 09:19:26;;;;;;;;;;;12.40;99.90;;;;;;5015927;28;19914;-68
2023/03/04 09:21:54;;;;;;;;;;;12.60;99.90;;;;;;5014550;28;19940;-67
2023/03/04 09:24:20;;;;;;;;;;;12.60;99.90;;;;;;5017307;28;19943;-68
2023/03/04 09:26:49;;;;;;;;;;;12.70;99.90;;;;;;5018846;28;20668;-70
2023/03/04 09:29:14;;;;;;;;;;;12.70;99.90;;;;;;5018793;28;20322;-68
2023/03/04 09:31:40;;;;;;;;;;;12.70;99.90;;;;;;5014782;28;19913;-68
2023/03/04 09:34:05;;;;;;;;;;;12.80;99.90;;;;;;5015628;28;19914;-68
2023/03/04 09:36:31;;;;;;;;;;;12.90;99.90;;;;;;5017079;28;19913;-68
2023/03/04 09:39:00;;;;;;;;;;;13.10;99.90;;;;;;5018420;28;20426;-66
2023/03/04 09:41:35;;;;;;;;;;;13.10;99.90;;;;;;5018352;28;19918;-66
2023/03/04 09:44:04;;;;;;;;;;;13.30;99.90;;;;;;5017587;28;19913;-68
2023/03/04 09:46:36;;;;;;;;;;;13.40;99.90;;;;;;5017280;28;19922;-69
2023/03/04 09:49:02;;;;;;;;;;;13.50;99.90;;;;;;5017176;28;19917;-68
2023/03/04 09:51:34;;;;;;;;;;;13.50;99.90;;;;;;5017201;28;19909;-69
2023/03/04 09:54:00;;;;;;;;;;;13.60;99.90;;;;;;5017388;28;20402;-69
2023/03/04 09:56:26;;;;;;;;;;;13.60;99.90;;;;;;5018806;28;19909;-68
2023/03/04 09:58:55;;;;;;;;;;;13.70;99.90;;;;;;5016940;28;19918;-68
2023/03/04 10:01:22;;;;;;;;;;;13.70;99.90;;;;;;5018510;28;20067;-69
2023/03/04 10:03:50;;;;;;;;;;;13.80;99.90;;;;;;5015970;28;19914;-68
2023/03/04 10:06:18;;;;;;;;;;;13.90;99.90;;;;;;5012889;28;20275;-70
2023/03/04 10:08:55;;;;;;;;;;;13.90;99.90;;;;;;5011378;28;19920;-69
2023/03/04 10:11:31;;;;;;;;;;;13.90;99.90;;;;;;5012379;28;19913;-69
2023/03/04 10:14:15;;;;;;;;;;;13.90;99.90;;;;;;5014363;28;19914;-69
2023/03/04 10:17:01;;;;;;;;;;;13.90;99.90;;;;;;5011091;28;19913;-69
2023/03/04 10:19:35;;;;;;;;;;;14.10;99.90;;;;;;5008089;28;19964;-69
2023/03/04 10:22:11;;;;;;;;;;;14.10;99.90;;;;;;5013573;28;19924;-69
2023/03/04 10:24:37;;;;;;;;;;;14.10;99.90;;;;;;5009354;28;19926;-69
2023/03/04 10:27:05;;;;;;;;;;;14.10;99.90;;;;;;5013680;28;19975;-69
2023/03/04 10:29:32;;;;;;;;;;;14.00;99.90;;;;;;5014985;28;19948;-69
2023/03/04 10:31:57;;;;;;;;;;;14.00;99.90;;;;;;5014830;28;19917;-69
2023/03/04 10:34:23;;;;;;;;;;;14.00;99.90;;;;;;5011108;28;19913;-69
2023/03/04 10:36:53;;;;;;;;;;;14.00;99.90;;;;;;5012987;28;19964;-69
2023/03/04 10:39:36;;;;;;;;;;;14.00;99.90;;;;;;5012407;28;20368;-70
2023/03/04 10:42:01;;;;;;;;;;;14.10;99.90;;;;;;5012517;28;20318;-69
2023/03/04 10:44:27;;;;;;;;;;;14.10;99.90;;;;;;5012952;28;19928;-75
2023/03/04 10:46:54;;;;;;;;;;;14.10;99.90;;;;;;5013215;28;20299;-69
2023/03/04 10:49:20;;;;;;;;;;;14.10;99.90;;;;;;5001943;28;19921;-69
2023/03/04 10:51:46;;;;;;;;;;;14.20;99.90;;;;;;5014282;28;19911;-70
2023/03/04 10:54:23;;;;;;;;;;;14.30;99.90;;;;;;5014588;28;19979;-68
2023/03/04 10:56:54;;;;;;;;;;;14.20;99.90;;;;;;5012814;28;19913;-69
2023/03/04 10:59:38;;;;;;;;;;;14.20;99.90;;;;;;5011448;28;19914;-68
2023/03/04 11:02:10;;;;;;;;;;;14.10;99.90;;;;;;5014314;28;19933;-68
2023/03/04 11:04:35;;;;;;;;;;;14.20;99.90;;;;;;5011832;28;19922;-68
2023/03/04 11:07:01;;;;;;;;;;;14.20;99.90;;;;;;5010890;28;20376;-68
2023/03/04 11:09:28;;;;;;;;;;;14.20;99.90;;;;;;5013230;28;20005;-68
2023/03/04 11:11:54;;;;;;;;;;;14.30;99.90;;;;;;5014267;28;19909;-68
2023/03/04 11:14:23;;;;;;;;;;;14.30;99.90;;;;;;5013162;28;19913;-69
2023/03/04 11:16:55;;;;;;;;;;;14.40;99.90;;;;;;5013548;28;20051;-69
2023/03/04 11:19:22;;;;;;;;;;;14.40;99.90;;;;;;5011603;28;19914;-69
2023/03/04 11:21:48;;;;;;;;;;;14.40;99.90;;;;;;5013368;28;19979;-69
2023/03/04 11:24:19;;;;;;;;;;;14.50;99.90;;;;;;5011179;28;19999;-70
2023/03/04 11:26:47;;;;;;;;;;;14.50;99.90;;;;;;5010249;28;19966;-69
2023/03/04 11:29:19;;;;;;;;;;;14.60;99.90;;;;;;5012490;28;20291;-70
2023/03/04 11:31:54;;;;;;;;;;;14.50;99.90;;;;;;5012371;28;20413;-69
2023/03/04 11:34:28;;;;;;;;;;;14.50;99.90;;;;;;5010064;28;19921;-69
2023/03/04 11:36:56;;;;;;;;;;;14.70;99.90;;;;;;5010312;28;20004;-69
2023/03/04 11:39:33;;;;;;;;;;;14.70;99.90;;;;;;5013292;28;19913;-73
2023/03/04 11:42:09;;;;;;;;;;;14.70;99.90;;;;;;5011609;28;20017;-69
2023/03/04 11:44:35;;;;;;;;;;;14.60;99.90;;;;;;5007371;28;20302;-69
2023/03/04 11:47:19;;;;;;;;;;;14.60;99.90;;;;;;5011739;28;19913;-69
2023/03/04 11:49:51;;;;;;;;;;;14.60;99.90;;;;;;5009246;28;19923;-70
2023/03/04 11:52:17;;;;;;;;;;;14.70;99.90;;;;;;5008991;28;20363;-71
2023/03/04 11:55:05;;;;;;;;;;;14.70;99.90;;;;;;5013112;28;19945;-71
2023/03/04 11:57:39;;;;;;;;;;;14.90;99.90;;;;;;5013418;28;19935;-69
2023/03/04 12:00:14;;;;;;;;;;;14.90;99.90;;;;;;5012225;28;20326;-69
2023/03/04 12:02:53;;;;;;;;;;;15.00;99.90;;;;;;5011853;28;19914;-75
2023/03/04 12:05:19;;;;;;;;;;;15.10;99.90;;;;;;5012094;28;19917;-70
2023/03/04 12:07:45;;;;;;;;;;;15.10;99.90;;;;;;5013295;28;20391;-70
2023/03/04 12:10:26;;;;;;;;;;;15.10;99.90;;;;;;5013358;28;19917;-71
2023/03/04 12:13:00;;;;;;;;;;;15.10;99.90;;;;;;5012647;28;19949;-70
2023/03/04 12:15:29;;;;;;;;;;;15.10;99.90;;;;;;4993959;28;20297;-69
2023/03/04 12:17:58;;;;;;;;;;;15.10;99.90;;;;;;4997510;28;20303;-69
2023/03/04 12:20:33;;;;;;;;;;;15.10;99.90;;;;;;5012062;28;20284;-71
2023/03/04 12:23:02;;;;;;;;;;;15.10;99.90;;;;;;5005937;28;19932;-69
2023/03/04 12:25:44;;;;;;;;;;;15.20;99.90;;;;;;5011312;28;19917;-70
2023/03/04 12:28:32;;;;;;;;;;;15.20;99.90;;;;;;5007323;28;19913;-69
2023/03/04 12:31:23;;;;;;;;;;;15.20;99.90;;;;;;5009058;28;19914;-69
2023/03/04 12:33:52;;;;;;;;;;;15.20;99.90;;;;;;5003395;28;20008;-70
2023/03/04 12:36:35;;;;;;;;;;;15.10;99.90;;;;;;5004395;28;19921;-70
2023/03/04 12:39:00;;;;;;;;;;;15.30;99.90;;;;;;5009847;28;19914;-70
2023/03/04 12:41:27;;;;;;;;;;;15.20;99.90;;;;;;4999869;28;19924;-69
2023/03/04 12:43:52;;;;;;;;;;;15.10;99.90;;;;;;5009682;28;19920;-69
2023/03/04 12:46:21;;;;;;;;;;;15.20;99.90;;;;;;4993343;28;19913;-69
2023/03/04 12:48:55;;;;;;;;;;;15.30;99.90;;;;;;5007335;28;20352;-69
2023/03/04 12:51:21;;;;;;;;;;;15.30;99.90;;;;;;5007649;28;20422;-69
2023/03/04 12:53:47;;;;;;;;;;;15.30;99.90;;;;;;5005378;28;19965;-69
2023/03/04 12:56:49;;;;;;;;;;;15.30;99.90;;;;;;5011567;28;19910;-69
2023/03/04 12:59:27;;;;;;;;;;;15.30;99.90;;;;;;4996833;28;19968;-70
2023/03/04 13:02:12;;;;;;;;;;;15.30;99.90;;;;;;5010541;28;19953;-70
2023/03/04 13:04:50;;;;;;;;;;;15.40;99.90;;;;;;5007749;28;20291;-71
2023/03/04 13:07:31;;;;;;;;;;;15.40;99.90;;;;;;5011997;28;19920;-70
2023/03/04 13:10:17;;;;;;;;;;;15.40;99.90;;;;;;5012324;28;19909;-70
2023/03/04 13:12:53;;;;;;;;;;;15.50;99.90;;;;;;5008711;28;19913;-70
2023/03/04 13:15:21;;;;;;;;;;;15.50;99.90;;;;;;5012438;28;19909;-70
2023/03/04 13:17:50;;;;;;;;;;;15.50;99.90;;;;;;5008397;28;19924;-69
2023/03/04 13:20:19;;;;;;;;;;;15.50;99.90;;;;;;5012229;28;19917;-69
2023/03/04 13:22:55;;;;;;;;;;;15.50;99.90;;;;;;5010731;28;20061;-68
2023/03/04 13:25:27;;;;;;;;;;;15.50;99.90;;;;;;5011843;28;19921;-70
2023/03/04 13:28:01;;;;;;;;;;;15.40;99.80;;;;;;5009736;28;20020;-70
2023/03/04 13:30:39;;;;;;;;;;;15.40;99.90;;;;;;5007983;28;19913;-70
2023/03/04 13:33:07;;;;;;;;;;;15.40;99.90;;;;;;5004166;28;19936;-69
2023/03/04 13:35:48;;;;;;;;;;;15.40;99.90;;;;;;5008191;28;20007;-66
2023/03/04 13:38:36;;;;;;;;;;;15.40;99.90;;;;;;5009789;28;19913;-70
2023/03/04 13:41:21;;;;;;;;;;;15.50;99.90;;;;;;5014952;28;19922;-70
2023/03/04 13:43:47;;;;;;;;;;;15.60;99.90;;;;;;5015083;28;19917;-68
2023/03/04 13:46:19;;;;;;;;;;;15.60;99.40;;;;;;5011151;28;19910;-69
2023/03/04 13:48:50;;;;;;;;;;;15.60;99.40;;;;;;5010608;28;19917;-70
2023/03/04 13:51:21;;;;;;;;;;;15.60;99.60;;;;;;5015750;28;19979;-69
2023/03/04 13:53:58;;;;;;;;;;;15.50;98.40;;;;;;5011347;28;20360;-70
2023/03/04 13:56:27;;;;;;;;;;;15.50;98.40;;;;;;5005534;28;20206;-69
2023/03/04 13:59:25;;;;;;;;;;;15.50;99.10;;;;;;5011806;28;19913;-70
2023/03/04 14:01:55;;;;;;;;;;;15.60;99.10;;;;;;5002649;28;20538;-70
2023/03/04 14:04:37;;;;;;;;;;;15.50;99.10;;;;;;5014873;28;19996;-70
2023/03/04 14:07:17;;;;;;;;;;;15.50;98.90;;;;;;5013385;28;19921;-68
2023/03/04 14:09:52;;;;;;;;;;;15.50;99.00;;;;;;5010371;28;20363;-70
2023/03/04 14:12:18;;;;;;;;;;;15.60;98.70;;;;;;5011519;28;19920;-67
2023/03/04 14:14:49;;;;;;;;;;;15.60;98.40;;;;;;5010021;28;19985;-69
2023/03/04 14:17:17;;;;;;;;;;;15.60;98.10;;;;;;4994638;28;19916;-70
2023/03/04 14:19:43;;;;;;;;;;;15.60;98.50;;;;;;4996337;28;20078;-70
2023/03/04 14:22:44;;;;;;;;;;;15.70;98.80;;;;;;5006900;28;20040;-69
2023/03/04 14:25:13;;;;;;;;;;;15.70;98.90;;;;;;4991025;28;20105;-70
2023/03/04 14:27:39;;;;;;;;;;;15.70;98.70;;;;;;4994096;28;19910;-67
2023/03/04 14:30:07;;;;;;;;;;;15.70;98.20;;;;;;4994882;28;20398;-70
2023/03/04 14:32:33;;;;;;;;;;;15.70;98.00;;;;;;5013141;28;19913;-69